createdAt,value
2022-10-10T00:04:08.881Z,9.48
2022-10-10T00:09:11.734Z,9.31
2022-10-10T00:14:14.360Z,9.17
2022-10-10T00:19:16.964Z,9.15
2022-10-10T00:24:19.731Z,9.25
2022-10-10T00:29:22.349Z,9.13
2022-10-10T00:34:24.994Z,9.01
2022-10-10T00:39:27.585Z,9.09
2022-10-10T00:44:30.183Z,9.08
2022-10-10T00:49:35.986Z,8.82
2022-10-10T00:54:39.838Z,8.79
2022-10-10T00:59:45.639Z,8.76
2022-10-10T01:04:48.349Z,8.89
2022-10-10T01:09:53.664Z,8.92
2022-10-10T01:15:15.550Z,8.86
2022-10-10T01:20:52.360Z,8.79
2022-10-10T01:26:10.081Z,8.84
2022-10-10T01:31:15.424Z,8.86
2022-10-10T01:36:42.628Z,8.89
2022-10-10T01:41:56.335Z,8.76
2022-10-10T01:46:59.450Z,8.65
2022-10-10T01:52:36.359Z,8.53
2022-10-10T01:57:48.072Z,8.69
2022-10-10T02:03:10.949Z,8.66
2022-10-10T02:08:27.621Z,8.60
2022-10-10T02:13:56.985Z,8.55
2022-10-10T02:19:00.354Z,8.53
2022-10-10T02:24:08.213Z,8.50
2022-10-10T02:29:24.432Z,8.53
2022-10-10T02:34:35.607Z,8.57
2022-10-10T02:39:44.386Z,8.49
2022-10-10T02:44:47.879Z,8.44
2022-10-10T02:49:52.012Z,8.25
2022-10-10T02:54:54.593Z,8.34
2022-10-10T02:59:57.309Z,8.33
2022-10-10T03:05:00.439Z,8.27
2022-10-10T03:10:06.189Z,8.47
2022-10-10T03:15:11.686Z,8.58
2022-10-10T03:20:14.834Z,8.53
2022-10-10T03:25:17.634Z,8.55
2022-10-10T03:30:20.201Z,8.16
2022-10-10T03:35:22.784Z,8.21
2022-10-10T03:40:26.961Z,8.39
2022-10-10T03:45:29.505Z,8.25
2022-10-10T03:50:32.309Z,8.20
2022-10-10T03:55:34.997Z,8.44
2022-10-10T04:00:37.685Z,8.38
2022-10-10T04:05:40.385Z,8.29
2022-10-10T04:10:42.964Z,8.19
2022-10-10T04:15:45.684Z,8.20
2022-10-10T04:20:48.230Z,8.21
2022-10-10T04:25:53.699Z,8.14
2022-10-10T04:30:56.792Z,8.19
2022-10-10T04:35:59.345Z,8.23
2022-10-10T04:41:01.950Z,8.08
2022-10-10T04:46:04.644Z,8.00
2022-10-10T04:51:07.342Z,7.94
2022-10-10T04:56:09.986Z,7.92
2022-10-10T05:01:12.602Z,7.93
2022-10-10T05:06:15.413Z,8.07
2022-10-10T05:11:18.077Z,8.01
2022-10-10T05:16:20.705Z,7.94
2022-10-10T05:21:23.749Z,7.89
2022-10-10T05:26:27.002Z,7.97
2022-10-10T05:31:29.729Z,8.15
2022-10-10T05:36:32.381Z,7.85
2022-10-10T05:41:35.510Z,8.02
2022-10-10T05:46:38.192Z,8.16
2022-10-10T05:51:41.233Z,7.96
2022-10-10T05:56:44.148Z,7.70
2022-10-10T06:01:46.749Z,7.62
2022-10-10T06:06:53.609Z,7.64
2022-10-10T06:11:56.221Z,7.80
2022-10-10T06:16:58.841Z,7.84
2022-10-10T06:22:01.500Z,8.09
2022-10-10T06:27:04.558Z,8.38
2022-10-10T06:32:07.056Z,8.40
2022-10-10T06:37:12.437Z,8.62
2022-10-10T06:42:15.052Z,8.50
2022-10-10T06:47:17.694Z,8.32
2022-10-10T06:52:20.348Z,8.33
2022-10-10T06:57:22.937Z,8.20
2022-10-10T07:02:25.515Z,8.51
2022-10-10T07:07:28.090Z,8.57
2022-10-10T07:12:35.138Z,8.74
2022-10-10T07:17:42.531Z,8.79
2022-10-10T07:22:45.271Z,8.74
2022-10-10T07:27:48.360Z,8.98
2022-10-10T07:32:53.363Z,8.75
2022-10-10T07:37:56.369Z,8.92
2022-10-10T07:42:59.632Z,9.25
2022-10-10T07:48:02.158Z,9.48
2022-10-10T07:53:04.894Z,9.55
2022-10-10T07:58:08.270Z,9.64
2022-10-10T08:03:12.340Z,9.56
2022-10-10T08:08:15.138Z,9.53
2022-10-10T08:13:17.765Z,9.78
2022-10-10T08:18:20.613Z,9.74
2022-10-10T08:23:23.912Z,9.88
2022-10-10T08:28:28.498Z,10.12
2022-10-10T08:33:31.092Z,10.01
2022-10-10T08:38:34.637Z,10.32
2022-10-10T08:43:51.537Z,10.52
2022-10-10T08:48:58.268Z,10.63
2022-10-10T08:54:05.705Z,10.64
2022-10-10T08:59:16.636Z,10.77
2022-10-10T09:04:19.892Z,10.84
2022-10-10T09:09:43.913Z,11.00
2022-10-10T09:14:59.805Z,10.82
2022-10-10T09:20:38.414Z,10.97
2022-10-10T09:25:48.917Z,11.11
2022-10-10T09:30:57.668Z,11.31
2022-10-10T09:36:05.674Z,11.24
2022-10-10T09:41:14.109Z,11.26
2022-10-10T09:46:16.735Z,11.31
2022-10-10T09:51:20.297Z,11.30
2022-10-10T09:56:26.120Z,11.51
2022-10-10T10:01:32.691Z,11.37
2022-10-10T10:06:35.807Z,11.13
2022-10-10T10:11:42.186Z,11.10
2022-10-10T10:16:44.931Z,11.26
2022-10-10T10:21:50.265Z,11.19
2022-10-10T10:26:52.865Z,11.15
2022-10-10T10:32:02.970Z,11.30
2022-10-10T10:37:23.905Z,11.37
2022-10-10T10:42:41.452Z,11.33
2022-10-10T10:48:13.050Z,11.32
2022-10-10T10:53:49.222Z,11.24
2022-10-10T11:05:25.051Z,11.36
2022-10-10T11:10:32.694Z,11.41
2022-10-10T11:21:17.297Z,11.52
2022-10-10T11:26:51.490Z,11.47
2022-10-10T11:32:01.239Z,11.06
2022-10-10T11:37:11.288Z,11.39
2022-10-10T11:42:13.813Z,11.35
2022-10-10T11:47:20.472Z,11.49
2022-10-10T11:52:41.808Z,11.34
2022-10-10T11:57:56.047Z,11.27
2022-10-10T12:02:58.684Z,11.31
2022-10-10T12:08:07.253Z,11.21
2022-10-10T12:13:25.230Z,11.23
2022-10-10T12:19:09.053Z,11.29
2022-10-10T12:24:14.002Z,11.04
2022-10-10T12:29:39.209Z,10.85
2022-10-10T12:34:47.895Z,10.94
2022-10-10T12:40:06.464Z,10.88
2022-10-10T12:45:31.235Z,10.74
2022-10-10T12:50:40.801Z,10.71
2022-10-10T12:55:53.794Z,10.41
2022-10-10T13:01:00.514Z,10.40
2022-10-10T13:06:15.354Z,10.38
2022-10-10T13:11:17.981Z,10.26
2022-10-10T13:16:23.487Z,10.14
2022-10-10T13:21:34.116Z,10.03
2022-10-10T13:26:45.629Z,10.01
2022-10-10T13:31:48.992Z,9.88
2022-10-10T13:36:55.938Z,9.77
2022-10-10T13:42:00.121Z,9.62
2022-10-10T13:47:40.998Z,9.67
2022-10-10T13:52:43.508Z,9.53
2022-10-10T13:57:48.017Z,9.43
2022-10-10T14:02:51.136Z,9.32
2022-10-10T14:07:55.719Z,9.32
2022-10-10T14:13:00.511Z,9.19
2022-10-10T14:18:15.214Z,9.05
2022-10-10T14:23:18.091Z,8.88
2022-10-10T14:28:32.606Z,8.73
2022-10-10T14:33:35.439Z,8.47
2022-10-10T14:38:38.032Z,8.42
2022-10-10T14:43:45.478Z,8.27
2022-10-10T14:48:48.866Z,8.17
2022-10-10T14:54:12.008Z,8.04
2022-10-10T14:59:48.533Z,7.94
2022-10-10T15:04:43.462Z,7.84
2022-10-10T15:10:32.022Z,7.80
2022-10-10T15:15:12.350Z,7.59
2022-10-10T15:20:15.007Z,7.51
2022-10-10T15:25:17.634Z,7.40
2022-10-10T15:30:20.377Z,7.36
2022-10-10T15:35:24.617Z,7.22
2022-10-10T15:40:27.272Z,7.02
2022-10-10T15:45:55.118Z,6.97
2022-10-10T15:50:52.705Z,6.81
2022-10-10T15:55:55.406Z,6.76
2022-10-10T16:00:58.004Z,6.51
2022-10-10T16:06:02.587Z,6.70
2022-10-10T16:11:07.463Z,6.50
2022-10-10T16:16:11.605Z,6.55
2022-10-10T16:21:20.214Z,6.32
2022-10-10T16:26:29.252Z,6.37
2022-10-10T16:31:35.381Z,6.30
2022-10-10T16:36:38.042Z,6.05
2022-10-10T16:41:48.157Z,6.06
2022-10-10T16:46:51.890Z,5.92
2022-10-10T16:51:54.493Z,5.83
2022-10-10T16:56:57.109Z,5.95
2022-10-10T17:01:59.750Z,5.94
2022-10-10T17:07:02.376Z,5.79
2022-10-10T17:12:05.624Z,5.79
2022-10-10T17:17:12.782Z,5.74
2022-10-10T17:22:16.532Z,5.55
2022-10-10T17:27:19.109Z,5.51
2022-10-10T17:32:23.100Z,5.45
2022-10-10T17:37:25.756Z,5.43
2022-10-10T17:42:28.392Z,5.30
2022-10-10T17:47:31.242Z,5.10
2022-10-10T17:52:33.821Z,5.00
2022-10-10T17:57:37.054Z,5.01
2022-10-10T18:02:39.799Z,4.99
2022-10-10T18:07:43.754Z,4.95
2022-10-10T18:12:46.417Z,4.92
2022-10-10T18:17:49.065Z,4.93
2022-10-10T18:22:53.950Z,4.94
2022-10-10T18:27:58.303Z,4.90
2022-10-10T18:33:00.902Z,4.85
2022-10-10T18:38:03.500Z,4.85
2022-10-10T18:43:06.063Z,4.83
2022-10-10T18:48:08.639Z,4.80
2022-10-10T18:53:11.585Z,4.70
2022-10-10T18:58:14.268Z,4.61
2022-10-10T19:03:16.854Z,4.61
2022-10-10T19:08:19.440Z,4.53
2022-10-10T19:13:22.202Z,4.49
2022-10-10T19:18:24.729Z,4.41
2022-10-10T19:23:27.657Z,4.20
2022-10-10T19:28:31.757Z,4.07
2022-10-10T19:33:34.550Z,3.91
2022-10-10T19:38:39.917Z,3.85
2022-10-10T19:43:43.941Z,3.82
2022-10-10T19:48:46.521Z,3.67
2022-10-10T19:53:49.196Z,3.86
2022-10-10T19:58:57.634Z,3.82
2022-10-10T20:04:00.357Z,3.66
2022-10-10T20:09:05.059Z,3.54
2022-10-10T20:14:10.245Z,3.41
2022-10-10T20:19:12.809Z,3.33
2022-10-10T20:24:15.613Z,3.38
2022-10-10T20:29:18.516Z,3.32
2022-10-10T20:34:21.093Z,3.28
2022-10-10T20:39:23.645Z,3.22
2022-10-10T20:44:26.278Z,3.20
2022-10-10T20:49:29.078Z,3.28
2022-10-10T20:54:31.664Z,3.24
2022-10-10T20:59:34.229Z,3.14
2022-10-10T21:04:37.542Z,3.22
2022-10-10T21:09:40.167Z,3.10
2022-10-10T21:14:42.805Z,3.06
2022-10-10T21:19:45.371Z,3.05
2022-10-10T21:24:48.125Z,3.05
2022-10-10T21:29:52.382Z,3.00
2022-10-10T21:34:56.535Z,2.87
2022-10-10T21:39:59.389Z,2.76
2022-10-10T21:45:01.932Z,2.68
2022-10-10T21:50:05.666Z,2.66
2022-10-10T21:55:08.913Z,2.84
2022-10-10T22:00:12.250Z,2.75
2022-10-10T22:05:16.409Z,2.69
2022-10-10T22:10:19.740Z,2.56
2022-10-10T22:15:22.481Z,2.50
2022-10-10T22:20:25.084Z,2.41
2022-10-10T22:25:27.755Z,2.46
2022-10-10T22:30:30.357Z,2.32
2022-10-10T22:35:33.859Z,2.27
2022-10-10T22:40:36.721Z,2.24
2022-10-10T22:45:39.265Z,2.33
2022-10-10T22:50:41.881Z,2.46
2022-10-10T22:55:44.482Z,2.31
2022-10-10T23:00:47.207Z,2.40
2022-10-10T23:05:49.823Z,2.37
2022-10-10T23:10:52.637Z,2.26
2022-10-10T23:15:55.256Z,2.17
2022-10-10T23:20:58.260Z,2.27
2022-10-10T23:26:06.071Z,2.24
2022-10-10T23:31:10.178Z,2.23
2022-10-10T23:36:15.068Z,2.12
2022-10-10T23:41:17.744Z,2.10
2022-10-10T23:46:20.338Z,2.05
2022-10-10T23:51:22.926Z,2.10
2022-10-10T23:56:25.477Z,2.19
